Terminal Aerodrome Forecast
Issued by NWS Pocatello, ID

Home | Current Version | Previous Version | Text Only | Print | Product List | Glossary On
Versions: 1 2 3 4 5 6 7 8 9 10 11 12 13 14
000
FTUS45 KPIH 031720
TAFPIH
TAF
KPIH 031720Z 0318/0418 20011G20KT P6SM VCSH SCT100 BKN150
     FM032000 24015G25KT P6SM -SHRA VCTS SCT070 BKN100CB
     FM040300 20010KT P6SM -SHRA SCT060 BKN090
     FM040800 13010KT P6SM SCT090 BKN120=

USA.gov is the U.S. government's official web portal to all federal, state and local government web resources and services.